SEW weather

Siwa Oasis North Airport
Siwa, Matruh Governorate, Egypt

Public forecast

Using degrees Celsius for public forecast. Weather courtesy of forecast.io.

Closest aviation weather report (METAR) to Siwa Oasis North Airport

Closest report is Mersa Matruh Airport, 148.4 nm (274.9 km) NE. Retrieved 2020/06/04 01:00 UTC (25 minutes ago):

HEMM 040100Z 00000KT CAVOK 19/14 Q1012 NOSIG

Closest aviation forecast (TAF) to Siwa Oasis North Airport

Closest forecast is Mersa Matruh Airport, 148.4 nm (274.9 km) NE. Retrieved 2020-06-04 00:33 UTC (52 minutes ago):

TAF HEMM 032300Z 0400/0506 04010KT 9999 FEW020 TEMPO 0400/0406 VRB03KT 4000 BR NSC